Bad Ischl, Austria
Current Conditions -  °F | °C
As of 5:20 AM on Monday 22 Dec 2014 (Local Time) from LOWS Reporting Station
Scattered Clouds Scattered Clouds  
Wind Chill: 21°   Ceiling: Unl
Heat Index: 28°   Visibility: 6mi
Dew Point: 28°   Wind: 7mph
Humidity: 100%   Direction: 180°S
Pressure: 30.36"   Gusts: NA
Location:  47.72°N, 13.61°E
Report Text: LOWS 220320Z 18006KT 140V270 9999 FEW025 SCT300 M02/M02 Q1028
Loading
Personal Weather Stations






























Interactive Weather Map New forecast layout! Learn more

10-Day Weather Forecast

Advertisements
Track Severe Weather on mobile